Time;durP1;ratioP1;P1;durP2;ratioP2;P2;SDS_P1;SDS_P2;PMS_P1;PMS_P2;Temp;Humidity;BMP_temperature;BMP_pressure;BME280_temperature;BME280_humidity;BME280_pressure;Samples;Min_cycle;Max_cycle;Signal;HPM_P1;HPM_P2
2021/09/10 00:00:20;;;;;;;;;2.33;1.00;;;;;22.46;63.12;100840.47;5017215;28;47215;-91
2021/09/10 00:02:46;;;;;;;;;2.00;2.00;;;;;22.49;63.11;100852.88;5027765;28;45324;-94
2021/09/10 00:05:11;;;;;;;;;3.00;3.00;;;;;22.40;63.19;100846.00;5004022;28;45432;-92
2021/09/10 00:07:37;;;;;;;;;3.00;3.00;;;;;22.43;63.07;100851.25;5021906;28;45308;-90
2021/09/10 00:10:04;;;;;;;;;4.00;2.00;;;;;22.45;63.04;100844.06;5004378;28;48298;-91
2021/09/10 00:12:29;;;;;;;;;1.00;1.00;;;;;22.46;63.69;100851.19;5020859;28;45455;-91
2021/09/10 00:14:55;;;;;;;;;3.00;3.00;;;;;22.48;63.44;100854.69;5022415;28;45236;-92
2021/09/10 00:17:20;;;;;;;;;2.50;2.50;;;;;22.50;63.53;100860.88;5022703;28;45285;-91
2021/09/10 00:19:46;;;;;;;;;5.00;3.00;;;;;22.48;63.76;100853.81;5021262;28;46484;-92
2021/09/10 00:22:11;;;;;;;;;3.00;2.00;;;;;22.51;63.60;100861.72;5022472;28;45286;-92
2021/09/10 00:24:37;;;;;;;;;3.33;2.33;;;;;22.49;63.57;100861.78;5007805;28;45277;-93
2021/09/10 00:27:04;;;;;;;;;2.00;2.00;;;;;22.44;63.47;100861.06;5003555;28;45510;-92
2021/09/10 00:29:30;;;;;;;;;3.00;3.00;;;;;22.31;63.67;100841.81;5002894;28;47391;-93
2021/09/10 00:31:55;;;;;;;;;2.67;2.00;;;;;22.35;63.96;100848.81;5020816;28;45516;-94
2021/09/10 00:34:21;;;;;;;;;5.00;2.67;;;;;22.30;63.72;100835.56;5005413;28;45497;-93
2021/09/10 00:36:47;;;;;;;;;2.67;2.00;;;;;22.39;64.10;100854.97;5005879;28;45320;-93
2021/09/10 00:39:13;;;;;;;;;3.00;1.00;;;;;22.33;64.05;100840.84;5005506;28;47595;-92
2021/09/10 00:41:41;;;;;;;;;3.33;2.33;;;;;22.43;63.81;100857.50;5027628;28;45215;-93
2021/09/10 00:44:07;;;;;;;;;1.33;1.33;;;;;22.39;63.92;100854.97;5029539;28;45170;-93
2021/09/10 00:46:32;;;;;;;;;2.33;2.33;;;;;22.42;64.51;100862.91;5006102;28;45261;-93
2021/09/10 00:48:58;;;;;;;;;1.00;1.00;;;;;22.34;64.36;100855.09;4990002;28;47037;-93
2021/09/10 00:51:24;;;;;;;;;3.67;3.00;;;;;22.39;64.11;100876.38;5024559;28;45441;-92
2021/09/10 00:53:55;;;;;;;;;3.00;1.67;;;;;22.39;64.20;100879.94;5009874;28;45441;-92
2021/09/10 00:56:20;;;;;;;;;2.33;2.33;;;;;22.28;64.23;100858.84;5011237;28;44940;-90
2021/09/10 00:58:45;;;;;;;;;3.00;2.00;;;;;22.30;64.16;100867.69;5031956;28;45270;-91
2021/09/10 01:01:11;;;;;;;;;2.33;2.00;;;;;22.33;64.30;100877.44;5023617;28;44787;-90
2021/09/10 01:03:38;;;;;;;;;4.33;3.00;;;;;22.23;64.29;100867.94;5024501;28;44688;-89
2021/09/10 01:06:05;;;;;;;;;2.67;2.00;;;;;22.28;64.58;100885.63;5023946;28;45523;-89
2021/09/10 01:08:31;;;;;;;;;3.00;2.67;;;;;22.27;64.26;100883.84;5020923;28;47390;-89
2021/09/10 01:11:00;;;;;;;;;4.00;1.00;;;;;22.23;64.26;100866.13;5021549;28;44801;-90
2021/09/10 01:13:26;;;;;;;;;4.00;3.00;;;;;22.23;64.40;100863.44;5035336;28;45328;-89
2021/09/10 01:15:52;;;;;;;;;2.67;2.67;;;;;22.27;64.17;100885.66;5034774;28;45416;-90
2021/09/10 01:18:18;;;;;;;;;2.33;2.33;;;;;22.23;63.98;100873.28;5036406;28;45505;-91
2021/09/10 01:20:47;;;;;;;;;3.00;3.00;;;;;22.21;64.59;100879.56;5037696;28;44790;-89
2021/09/10 01:23:12;;;;;;;;;2.67;2.00;;;;;22.28;64.58;100885.63;5034424;28;45380;-88
2021/09/10 01:25:38;;;;;;;;;3.00;2.00;;;;;22.18;64.39;100876.97;5034122;28;44750;-88
2021/09/10 01:28:03;;;;;;;;;3.33;3.33;;;;;22.24;64.42;100883.06;5035232;28;45060;-89
2021/09/10 01:30:34;;;;;;;;;4.00;2.00;;;;;22.14;64.41;100871.75;5019130;28;45970;-92
2021/09/10 01:33:03;;;;;;;;;3.33;3.00;;;;;22.22;64.66;100888.47;5023021;28;45257;-92
2021/09/10 01:35:29;;;;;;;;;1.33;1.33;;;;;22.16;64.72;100875.25;5001519;28;45491;-92
2021/09/10 01:37:55;;;;;;;;;2.33;2.33;;;;;22.15;64.36;100884.19;5018561;28;45450;-90
2021/09/10 01:40:21;;;;;;;;;3.00;3.00;;;;;22.20;64.42;100898.34;5018861;28;46012;-92
2021/09/10 01:42:46;;;;;;;;;3.33;2.33;;;;;22.20;64.75;100887.63;5018875;28;45252;-91
2021/09/10 01:45:13;;;;;;;;;2.00;2.00;;;;;22.16;64.77;100888.66;5001691;28;45663;-94
2021/09/10 01:47:39;;;;;;;;;3.00;2.00;;;;;22.15;64.32;100881.53;5008338;28;46730;-93
2021/09/10 01:50:08;;;;;;;;;2.00;2.00;;;;;22.21;64.37;100900.97;5001229;28;45855;-93
2021/09/10 01:52:33;;;;;;;;;4.00;2.33;;;;;22.20;64.27;100898.34;5018528;28;45234;-93
2021/09/10 01:54:58;;;;;;;;;4.00;3.00;;;;;22.18;64.81;100892.16;5002548;28;45230;-91
2021/09/10 01:57:24;;;;;;;;;3.00;3.00;;;;;22.11;64.86;100878.06;5022030;28;45351;-92
2021/09/10 01:59:50;;;;;;;;;3.00;2.00;;;;;22.08;64.34;100878.16;5020590;28;45324;-92
2021/09/10 02:02:15;;;;;;;;;4.00;2.00;;;;;22.08;64.17;100878.16;5019009;28;45388;-91
2021/09/10 02:04:40;;;;;;;;;3.33;2.00;;;;;22.07;64.82;100871.06;5019178;28;45348;-94
2021/09/10 02:07:06;;;;;;;;;6.00;3.00;;;;;22.15;64.68;100886.88;5000925;28;48630;-92
2021/09/10 02:09:35;;;;;;;;;2.00;2.00;;;;;22.04;64.48;100877.34;5002453;28;45729;-93
2021/09/10 02:12:02;;;;;;;;;2.67;2.00;;;;;22.13;65.01;100902.09;5000738;28;45503;-93
2021/09/10 02:14:27;;;;;;;;;2.00;2.00;;;;;22.06;64.66;100893.41;5000477;28;45384;-91
2021/09/10 02:16:54;;;;;;;;;2.00;2.00;;;;;22.06;64.33;100893.41;5017316;28;46286;-92
2021/09/10 02:19:19;;;;;;;;;3.33;3.00;;;;;21.95;64.64;100877.63;4999573;28;45310;-94
2021/09/10 02:21:45;;;;;;;;;2.00;2.00;;;;;22.06;64.69;100890.72;5018307;28;45428;-91
2021/09/10 02:24:10;;;;;;;;;2.33;2.33;;;;;21.97;64.99;100887.38;5018777;28;45444;-94
2021/09/10 02:26:36;;;;;;;;;2.00;2.00;;;;;22.08;64.71;100908.47;5001159;28;47174;-92
2021/09/10 02:29:02;;;;;;;;;2.67;2.00;;;;;21.93;64.97;100879.47;5000919;28;45380;-92
2021/09/10 02:31:27;;;;;;;;;4.33;3.00;;;;;21.92;64.64;100883.06;5019271;28;45463;-93
2021/09/10 02:33:52;;;;;;;;;2.67;2.67;;;;;21.93;64.83;100887.50;5002408;28;45353;-92
2021/09/10 02:36:18;;;;;;;;;2.00;2.00;;;;;21.99;64.93;100895.38;5019495;28;46091;-96
2021/09/10 02:38:48;;;;;;;;;2.67;2.00;;;;;21.96;64.67;100884.72;5018663;28;45469;-95
2021/09/10 02:41:14;;;;;;;;;2.00;2.00;;;;;22.07;64.83;100904.06;5021926;28;45229;-94
2021/09/10 02:43:40;;;;;;;;;3.00;3.00;;;;;21.91;64.89;100881.31;5006263;28;45333;-93
2021/09/10 02:46:06;;;;;;;;;2.00;2.00;;;;;21.96;64.81;100885.63;5023950;28;46275;-94
2021/09/10 02:48:31;;;;;;;;;5.00;4.00;;;;;22.04;64.74;100906.81;5024037;28;45281;-95
2021/09/10 02:50:57;;;;;;;;;2.67;2.67;;;;;21.92;64.97;100885.75;5007846;28;45218;-93
2021/09/10 02:53:22;;;;;;;;;2.33;2.33;;;;;22.05;64.67;100911.25;5025400;28;45234;-92
2021/09/10 02:55:48;;;;;;;;;3.00;2.00;;;;;22.01;65.16;100904.22;5007801;28;47240;-93
2021/09/10 02:58:13;;;;;;;;;4.00;3.33;;;;;21.94;64.77;100886.56;5006139;28;45567;-93
2021/09/10 03:00:38;;;;;;;;;3.33;3.33;;;;;21.92;64.81;100888.41;5002726;28;45818;-93
2021/09/10 03:03:05;;;;;;;;;5.00;3.67;;;;;22.00;65.11;100899.78;5020046;28;45432;-93
2021/09/10 03:05:31;;;;;;;;;3.00;2.50;;;;;21.93;65.02;100880.38;5022791;28;46300;-94
2021/09/10 03:07:57;;;;;;;;;4.00;3.00;;;;;22.01;64.75;100893.53;5005843;28;45274;-91
2021/09/10 03:10:23;;;;;;;;;2.67;2.00;;;;;21.97;65.02;100890.06;5006962;28;45342;-94
2021/09/10 03:12:48;;;;;;;;;4.00;3.00;;;;;21.87;65.24;100864.47;5011587;28;45563;-92
2021/09/10 03:15:14;;;;;;;;;4.67;4.67;;;;;21.93;65.23;100879.47;5028651;28;45235;-91
2021/09/10 03:17:39;;;;;;;;;6.00;4.67;;;;;21.98;65.34;100893.59;5025087;28;45317;-95
2021/09/10 03:20:06;;;;;;;;;5.67;3.00;;;;;21.86;65.39;100878.75;5004489;28;45311;-95
2021/09/10 03:22:31;;;;;;;;;6.33;4.67;;;;;21.86;65.58;100871.63;5022576;28;45519;-94
2021/09/10 03:24:57;;;;;;;;;3.67;3.67;;;;;21.88;65.16;100873.38;5032398;28;48064;-93
2021/09/10 03:27:22;;;;;;;;;3.33;3.33;;;;;21.90;65.36;100885.78;5030570;28;44735;-96
2021/09/10 03:29:48;;;;;;;;;3.67;2.00;;;;;21.85;65.29;100880.56;5014078;28;45321;-92
2021/09/10 03:32:13;;;;;;;;;6.67;5.00;;;;;21.89;65.75;100899.22;5034857;28;44789;-94
2021/09/10 03:34:39;;;;;;;;;5.00;5.00;;;;;21.78;65.49;100878.97;5018644;28;47075;-88
2021/09/10 03:37:05;;;;;;;;;4.00;4.00;;;;;21.66;65.39;100868.59;5025142;28;45047;-95
2021/09/10 03:39:30;;;;;;;;;5.00;5.00;;;;;21.66;65.41;100876.63;5008347;28;45302;-91
2021/09/10 03:41:56;;;;;;;;;4.33;4.33;;;;;21.69;65.72;100869.38;5029351;28;44823;-90
2021/09/10 03:44:21;;;;;;;;;3.33;3.33;;;;;21.64;66.09;100871.28;5038540;28;45439;-93
2021/09/10 03:46:48;;;;;;;;;6.67;4.00;;;;;21.66;66.09;100876.63;5045690;28;44703;-90
2021/09/10 03:49:13;;;;;;;;;4.67;4.00;;;;;21.64;66.00;100864.16;5044285;28;44772;-91
2021/09/10 03:51:39;;;;;;;;;5.33;5.33;;;;;21.79;65.95;100895.88;5035358;28;45146;-90
2021/09/10 03:54:04;;;;;;;;;11.67;6.33;;;;;21.70;66.01;100879.13;5037734;28;45139;-89
2021/09/10 03:56:30;;;;;;;;;5.00;3.33;;;;;21.78;66.22;100894.13;5021653;28;45074;-91
2021/09/10 03:58:55;;;;;;;;;6.33;4.67;;;;;21.72;66.13;100892.50;5034653;28;44741;-89
2021/09/10 04:01:21;;;;;;;;;6.00;5.00;;;;;21.70;66.06;100883.63;5023002;28;45367;-89
2021/09/10 04:03:46;;;;;;;;;5.00;5.00;;;;;21.71;66.39;100883.59;5032565;28;45439;-89
2021/09/10 04:06:11;;;;;;;;;7.00;7.00;;;;;21.62;66.40;100873.13;5016550;28;45384;-89
2021/09/10 04:08:38;;;;;;;;;4.67;4.67;;;;;21.60;66.28;100866.94;5038801;28;45213;-90
2021/09/10 04:11:03;;;;;;;;;6.67;4.00;;;;;21.63;66.14;100878.47;5024590;28;45024;-91
2021/09/10 04:13:29;;;;;;;;;5.00;5.00;;;;;21.63;66.03;100878.47;5027107;28;47154;-92
2021/09/10 04:15:54;;;;;;;;;6.67;6.00;;;;;21.60;66.52;100877.63;5028459;28;44751;-89
2021/09/10 04:18:21;;;;;;;;;5.00;4.67;;;;;21.70;66.65;100891.66;5028877;28;44902;-90
2021/09/10 04:20:46;;;;;;;;;6.67;6.67;;;;;21.56;66.51;100871.50;5046614;28;44785;-89
2021/09/10 04:23:11;;;;;;;;;8.00;7.00;;;;;21.60;66.70;100878.53;5044876;28;45299;-88
2021/09/10 04:25:37;;;;;;;;;7.00;6.00;;;;;21.62;66.63;100882.03;5023312;28;45297;-91
2021/09/10 04:28:02;;;;;;;;;7.00;5.00;;;;;21.70;66.41;100895.19;5044749;28;45398;-95
2021/09/10 04:30:28;;;;;;;;;6.33;5.00;;;;;21.52;66.21;100865.34;5020404;28;45413;-90
2021/09/10 04:32:53;;;;;;;;;5.33;4.00;;;;;21.54;66.50;100867.09;5041486;28;46105;-88
2021/09/10 04:35:19;;;;;;;;;5.00;4.00;;;;;21.67;66.00;100889.94;5030647;28;44824;-90
2021/09/10 04:37:44;;;;;;;;;6.00;5.00;;;;;21.61;66.12;100880.28;5046602;28;45163;-89
2021/09/10 04:40:11;;;;;;;;;6.33;5.00;;;;;21.50;66.27;100860.97;5029120;28;44794;-93
2021/09/10 04:42:38;;;;;;;;;3.67;3.33;;;;;21.62;66.41;100886.50;5030027;28;47293;-89
2021/09/10 04:45:04;;;;;;;;;4.00;4.00;;;;;21.59;66.46;100882.13;5007868;28;45311;-94
2021/09/10 04:47:29;;;;;;;;;4.00;4.00;;;;;21.64;66.32;100885.53;5005431;28;45359;-93
2021/09/10 04:49:55;;;;;;;;;5.67;4.33;;;;;21.67;66.70;100883.69;5026338;28;45463;-92
2021/09/10 04:52:20;;;;;;;;;5.00;5.00;;;;;21.57;66.56;100875.06;5013457;28;48021;-93
2021/09/10 04:54:46;;;;;;;;;6.33;4.00;;;;;21.61;66.60;100874.94;5031372;28;45455;-93
2021/09/10 04:57:11;;;;;;;;;7.00;4.00;;;;;21.69;66.75;100889.91;5017243;28;45237;-92
2021/09/10 04:59:38;;;;;;;;;6.00;5.00;;;;;21.63;66.49;100883.81;5034291;28;44917;-93
2021/09/10 05:02:03;;;;;;;;;6.67;5.00;;;;;21.57;66.70;100870.59;5025215;28;45696;-92
2021/09/10 05:04:29;;;;;;;;;6.33;6.00;;;;;21.69;66.64;100888.09;5008102;28;45946;-93
2021/09/10 05:06:54;;;;;;;;;10.00;5.00;;;;;21.63;66.68;100882.91;5026826;28;45411;-93
2021/09/10 05:09:20;;;;;;;;;6.00;5.00;;;;;21.72;66.31;100903.19;5011525;28;45242;-93
2021/09/10 05:11:46;;;;;;;;;4.00;4.00;;;;;21.76;66.25;100902.19;5027705;28;46260;-93
2021/09/10 05:14:13;;;;;;;;;5.00;5.00;;;;;21.75;66.12;100903.09;5035124;28;45150;-91
2021/09/10 05:16:40;;;;;;;;;5.00;5.00;;;;;21.75;65.87;100905.78;5035253;28;45242;-91
2021/09/10 05:19:05;;;;;;;;;4.33;3.00;;;;;21.63;66.31;100882.91;5034782;28;44715;-91
2021/09/10 05:21:31;;;;;;;;;4.00;4.00;;;;;21.69;66.24;100890.78;5027513;28;45357;-92
2021/09/10 05:23:58;;;;;;;;;5.67;4.67;;;;;21.75;66.10;100914.69;5002743;28;45992;-94
2021/09/10 05:26:25;;;;;;;;;4.67;4.00;;;;;21.58;65.78;100891.06;5002142;28;45284;-92
2021/09/10 05:28:50;;;;;;;;;4.33;4.33;;;;;21.62;66.11;100900.75;5001632;28;45315;-94
2021/09/10 05:31:16;;;;;;;;;4.67;4.67;;;;;21.71;66.28;100923.72;5019095;28;47045;-90
2021/09/10 05:33:41;;;;;;;;;5.67;5.00;;;;;21.63;66.46;100899.84;5019680;28;45569;-92
2021/09/10 05:36:07;;;;;;;;;4.33;4.33;;;;;21.70;65.98;100915.75;5000335;28;45381;-80
2021/09/10 05:38:32;;;;;;;;;5.00;5.00;;;;;21.78;66.21;100936.94;5017257;28;45312;-79
2021/09/10 05:40:58;;;;;;;;;5.00;4.67;;;;;21.76;66.13;100939.66;5016691;28;46103;-78
2021/09/10 05:43:23;;;;;;;;;5.67;4.33;;;;;21.75;66.37;100935.22;5016863;28;45347;-80
2021/09/10 05:45:49;;;;;;;;;6.00;4.33;;;;;21.79;66.18;100936.88;5016768;28;45404;-83
2021/09/10 05:48:18;;;;;;;;;4.00;4.00;;;;;21.78;66.01;100935.16;5017543;28;45715;-79
2021/09/10 05:50:47;;;;;;;;;6.67;6.00;;;;;21.78;66.55;100943.16;5017109;28;46107;-82
2021/09/10 05:53:13;;;;;;;;;6.67;6.33;;;;;21.75;66.03;100944.13;5016551;28;45210;-82
2021/09/10 05:55:39;;;;;;;;;8.00;5.00;;;;;21.79;66.34;100952.94;5016702;28;45647;-79
2021/09/10 05:58:05;;;;;;;;;5.00;5.00;;;;;21.79;65.91;100952.94;5016428;28;45317;-79
2021/09/10 06:00:30;;;;;;;;;4.33;4.33;;;;;21.78;65.73;100959.22;5015949;28;45413;-82
2021/09/10 06:02:56;;;;;;;;;6.67;5.00;;;;;21.76;66.14;100958.38;5016460;28;45307;-83
2021/09/10 06:05:21;;;;;;;;;6.67;5.33;;;;;21.78;66.29;100964.56;5016835;28;45359;-81
2021/09/10 06:07:47;;;;;;;;;5.33;5.33;;;;;21.77;66.37;100961.91;5016677;28;45382;-83
2021/09/10 06:10:13;;;;;;;;;5.00;4.00;;;;;21.80;66.10;100969.88;5016102;28;45443;-79
2021/09/10 06:12:38;;;;;;;;;6.00;5.67;;;;;21.75;65.69;100967.31;5016446;28;45404;-82
2021/09/10 06:15:04;;;;;;;;;5.67;5.67;;;;;21.70;65.79;100964.75;5016423;28;45476;-82
2021/09/10 06:17:30;;;;;;;;;9.67;6.00;;;;;21.69;66.53;100964.78;5016711;28;45279;-80
2021/09/10 06:19:55;;;;;;;;;5.67;5.00;;;;;21.73;66.32;100967.38;5016206;28;45623;-81
2021/09/10 06:22:20;;;;;;;;;9.00;7.00;;;;;21.75;66.46;100967.31;5016265;28;45259;-81
2021/09/10 06:24:46;;;;;;;;;6.00;4.33;;;;;21.75;65.81;100978.00;4998588;28;45577;-79
2021/09/10 06:27:15;;;;;;;;;7.33;5.33;;;;;21.72;66.41;100968.25;5019947;28;45458;-93
2021/09/10 06:29:41;;;;;;;;;6.00;4.67;;;;;21.73;66.47;100963.81;5016207;28;47169;-86
2021/09/10 06:32:06;;;;;;;;;5.00;5.00;;;;;21.66;66.24;100962.22;5016431;28;45269;-87
2021/09/10 06:34:32;;;;;;;;;6.00;6.00;;;;;21.76;66.06;100974.44;5016641;28;45446;-87
2021/09/10 06:37:00;;;;;;;;;5.00;5.00;;;;;21.73;66.46;100969.16;5016501;28;45466;-86
2021/09/10 06:39:26;;;;;;;;;4.33;4.33;;;;;21.79;66.66;100978.81;5020002;28;46488;-85
2021/09/10 06:41:51;;;;;;;;;7.00;6.00;;;;;21.72;66.98;100970.94;5020559;28;45419;-87
2021/09/10 06:44:17;;;;;;;;;7.00;6.00;;;;;21.77;66.42;100978.84;5020639;28;45349;-86
2021/09/10 06:46:42;;;;;;;;;5.00;5.00;;;;;21.81;65.78;100988.56;5020211;28;45421;-86
2021/09/10 06:49:08;;;;;;;;;6.00;6.00;;;;;21.85;66.75;100998.28;5020607;28;45332;-85
2021/09/10 06:51:33;;;;;;;;;5.67;5.67;;;;;21.79;66.32;100985.03;5020363;28;45349;-87
2021/09/10 06:53:59;;;;;;;;;10.33;5.67;;;;;21.84;66.17;101007.25;5002308;28;45407;-88
2021/09/10 06:56:24;;;;;;;;;6.00;5.33;;;;;21.84;66.43;101007.25;5020962;28;45369;-85
2021/09/10 06:58:51;;;;;;;;;7.00;5.00;;;;;21.86;66.16;101008.09;5002389;28;46520;-86
2021/09/10 07:01:16;;;;;;;;;5.67;4.33;;;;;21.83;65.96;101008.16;5020849;28;45323;-87
2021/09/10 07:03:42;;;;;;;;;5.33;4.00;;;;;21.82;66.15;101006.38;5020125;28;45320;-84
2021/09/10 07:06:07;;;;;;;;;8.00;5.67;;;;;21.84;66.36;101015.28;5020582;28;45321;-88
2021/09/10 07:08:33;;;;;;;;;5.00;4.00;;;;;21.81;66.24;101009.06;5019561;28;45370;-87
2021/09/10 07:11:01;;;;;;;;;7.00;5.33;;;;;21.77;66.12;101008.28;5019647;28;45462;-85
2021/09/10 07:13:27;;;;;;;;;5.67;5.67;;;;;21.85;65.94;101018.81;5020964;28;45387;-86
2021/09/10 07:15:53;;;;;;;;;5.00;5.00;;;;;21.84;66.00;101022.44;5019958;28;45241;-84
2021/09/10 07:18:20;;;;;;;;;7.33;5.00;;;;;21.81;66.34;101020.66;5021964;28;45329;-84
2021/09/10 07:20:45;;;;;;;;;8.00;6.33;;;;;21.83;66.54;101020.63;5010612;28;45348;-85
2021/09/10 07:23:11;;;;;;;;;9.67;5.67;;;;;21.85;66.53;101021.50;5008870;28;45416;-85
2021/09/10 07:25:36;;;;;;;;;5.33;5.00;;;;;21.84;66.21;101020.63;5023389;28;45294;-86
2021/09/10 07:28:02;;;;;;;;;7.33;6.00;;;;;21.80;66.62;101007.34;5020384;28;45603;-87
2021/09/10 07:30:27;;;;;;;;;8.33;7.33;;;;;21.83;66.36;101009.91;5019529;28;45374;-85
2021/09/10 07:32:52;;;;;;;;;8.00;6.33;;;;;21.88;66.34;101021.44;5001767;28;45388;-85
2021/09/10 07:35:18;;;;;;;;;6.00;4.00;;;;;21.86;66.06;101015.25;5019679;28;45311;-86
2021/09/10 07:37:45;;;;;;;;;5.00;4.33;;;;;21.88;66.34;101020.53;5019184;28;45416;-86
2021/09/10 07:40:11;;;;;;;;;8.00;6.00;;;;;21.80;66.21;101013.56;5019316;28;45450;-85
2021/09/10 07:42:36;;;;;;;;;8.00;6.00;;;;;21.85;66.67;101017.03;5019398;28;45198;-87
2021/09/10 07:45:02;;;;;;;;;5.00;5.00;;;;;21.92;66.22;101028.47;5020189;28;45483;-86
2021/09/10 07:47:28;;;;;;;;;8.67;6.33;;;;;21.96;65.93;101034.59;5018962;28;45367;-85
2021/09/10 07:49:54;;;;;;;;;10.33;6.00;;;;;21.94;66.24;101031.09;5018701;28;45420;-85
2021/09/10 07:52:19;;;;;;;;;8.33;6.33;;;;;21.96;65.92;101039.97;5019131;28;45391;-86
2021/09/10 07:54:45;;;;;;;;;5.33;5.33;;;;;21.91;66.07;101031.19;5018796;28;45296;-88
2021/09/10 07:57:11;;;;;;;;;7.00;6.00;;;;;21.92;66.31;101032.94;5018665;28;46214;-86
2021/09/10 07:59:37;;;;;;;;;7.67;6.67;;;;;21.93;66.05;101034.69;5019036;28;45566;-87
2021/09/10 08:02:02;;;;;;;;;6.00;5.33;;;;;22.02;65.84;101045.16;5019104;28;45395;-84
2021/09/10 08:04:28;;;;;;;;;7.33;6.33;;;;;21.97;65.86;101036.38;5018879;28;45360;-86
2021/09/10 08:06:53;;;;;;;;;9.67;6.00;;;;;21.95;65.72;101033.75;5018901;28;45437;-86
2021/09/10 08:09:19;;;;;;;;;3.00;3.00;;;;;22.06;65.45;101057.53;5019075;28;45395;-87
2021/09/10 08:11:44;;;;;;;;;8.00;5.00;;;;;22.09;65.98;101054.78;5019776;28;45254;-86
2021/09/10 08:14:10;;;;;;;;;6.00;5.67;;;;;22.06;65.85;101040.63;5019360;28;45294;-87
2021/09/10 08:16:36;;;;;;;;;6.00;6.00;;;;;22.14;65.29;101057.38;5000516;28;47110;-87
2021/09/10 08:19:01;;;;;;;;;6.00;5.67;;;;;22.29;65.85;101063.22;5018278;28;45539;-85
2021/09/10 08:21:27;;;;;;;;;7.00;5.67;;;;;22.35;65.59;101052.34;5018433;28;45375;-86
2021/09/10 08:23:52;;;;;;;;;10.67;7.67;;;;;22.39;64.96;101055.81;5018781;28;45453;-85
2021/09/10 08:26:18;;;;;;;;;5.00;4.00;;;;;22.44;65.07;101045.88;5018364;28;46080;-86
2021/09/10 08:28:43;;;;;;;;;6.33;4.00;;;;;22.50;65.15;101053.72;5018291;28;45316;-86
2021/09/10 08:31:09;;;;;;;;;5.00;5.00;;;;;22.69;64.85;101071.13;5018538;28;45294;-88
2021/09/10 08:33:34;;;;;;;;;5.00;5.00;;;;;22.67;64.68;101055.09;5018520;28;45424;-86
2021/09/10 08:36:01;;;;;;;;;5.00;4.00;;;;;22.81;63.72;101056.47;5018265;28;45811;-87
2021/09/10 08:38:27;;;;;;;;;6.33;4.00;;;;;22.86;63.69;101062.59;5018684;28;45431;-88
2021/09/10 08:40:57;;;;;;;;;5.33;5.33;;;;;22.95;64.23;101062.31;5018563;28;45314;-89
2021/09/10 08:43:24;;;;;;;;;6.00;6.00;;;;;23.01;63.59;101070.16;5018709;28;45458;-88
2021/09/10 08:45:50;;;;;;;;;5.33;4.67;;;;;23.09;63.75;101066.41;4999663;28;46388;-89
2021/09/10 08:48:17;;;;;;;;;6.00;5.00;;;;;23.12;63.08;101079.69;5018203;28;45390;-86
2021/09/10 08:50:43;;;;;;;;;5.33;5.33;;;;;23.15;62.92;101074.25;5017907;28;45249;-88
2021/09/10 08:53:09;;;;;;;;;6.00;5.33;;;;;23.18;62.80;101079.50;5018321;28;45499;-88
2021/09/10 08:55:35;;;;;;;;;5.33;4.67;;;;;23.18;62.91;101068.78;5000320;28;46184;-88
2021/09/10 08:58:00;;;;;;;;;5.00;5.00;;;;;23.28;62.29;101082.81;5020295;28;45163;-87
2021/09/10 09:00:31;;;;;;;;;5.00;5.00;;;;;23.34;61.88;101081.72;5022137;28;45610;-87
2021/09/10 09:03:01;;;;;;;;;5.33;4.00;;;;;23.28;62.29;101065.81;5021137;28;45395;-88
2021/09/10 09:05:28;;;;;;;;;6.00;4.67;;;;;23.35;62.03;101084.34;5020540;28;45356;-86
2021/09/10 09:08:23;;;;;;;;;5.33;5.33;;;;;23.37;61.70;101087.03;5017863;28;45317;-87
2021/09/10 09:11:01;;;;;;;;;5.00;5.00;;;;;23.37;61.89;101081.66;4975699;28;45461;-87
2021/09/10 09:13:36;;;;;;;;;7.33;6.00;;;;;23.35;61.79;101083.50;4976148;28;45428;-87
2021/09/10 09:16:19;;;;;;;;;4.00;4.00;;;;;23.44;61.57;101087.69;4975634;28;46332;-89
2021/09/10 09:19:00;;;;;;;;;5.00;4.00;;;;;23.65;61.39;101085.31;4975836;28;45387;-87
2021/09/10 09:21:27;;;;;;;;;4.00;4.00;;;;;23.81;60.62;101085.66;4975582;28;45306;-87
2021/09/10 09:23:54;;;;;;;;;4.00;4.00;;;;;23.86;60.71;101085.53;4978010;28;45539;-88
2021/09/10 09:26:27;;;;;;;;;5.33;4.00;;;;;23.96;60.73;101092.34;4985238;28;45377;-88
2021/09/10 09:29:07;;;;;;;;;3.67;3.00;;;;;24.05;59.84;101088.44;4985519;28;45705;-86
2021/09/10 09:31:34;;;;;;;;;7.00;4.00;;;;;24.16;59.96;101088.97;4977116;28;45397;-88
2021/09/10 09:33:59;;;;;;;;;6.33;4.33;;;;;24.22;59.41;101090.59;4959956;28;45515;-87
2021/09/10 09:36:25;;;;;;;;;4.00;4.00;;;;;24.25;59.42;101086.94;4976453;28;45888;-88
2021/09/10 09:38:50;;;;;;;;;4.67;4.33;;;;;24.22;59.04;101087.91;4975561;28;45304;-86
2021/09/10 09:41:19;;;;;;;;;5.00;5.00;;;;;24.16;59.15;101083.59;4976195;28;45425;-87
2021/09/10 09:43:47;;;;;;;;;5.33;5.33;;;;;24.16;59.17;101080.03;4987828;28;44847;-88
2021/09/10 09:46:14;;;;;;;;;6.33;4.33;;;;;24.20;59.25;101086.19;4980251;28;46266;-87
2021/09/10 09:48:42;;;;;;;;;7.00;5.00;;;;;24.20;59.41;101088.88;5017659;28;45340;-86
2021/09/10 09:51:10;;;;;;;;;6.33;6.00;;;;;24.24;59.17;101085.19;5017507;28;45482;-87
2021/09/10 09:53:37;;;;;;;;;4.00;4.00;;;;;24.35;59.34;101087.47;5017756;28;46045;-85
2021/09/10 09:56:03;;;;;;;;;4.00;3.00;;;;;24.35;58.58;101093.72;5017018;28;45420;-87
2021/09/10 09:58:30;;;;;;;;;7.00;4.33;;;;;24.32;58.69;101095.66;5016651;28;45384;-87
2021/09/10 10:00:57;;;;;;;;;3.00;3.00;;;;;24.28;58.14;101092.22;5016545;28;45413;-88
2021/09/10 10:03:22;;;;;;;;;4.33;4.33;;;;;24.24;58.18;101091.41;5017136;28;45333;-87
2021/09/10 10:05:51;;;;;;;;;4.00;3.00;;;;;24.17;57.83;101080.00;5016623;28;45535;-87
2021/09/10 10:08:25;;;;;;;;;3.33;3.00;;;;;24.25;57.51;101087.81;5016217;28;45316;-85
2021/09/10 10:10:54;;;;;;;;;4.00;4.00;;;;;24.26;58.02;101088.69;5016554;28;45686;-88
2021/09/10 10:13:26;;;;;;;;;3.67;2.00;;;;;24.29;58.12;101088.56;5017809;28;45534;-85
2021/09/10 10:15:52;;;;;;;;;3.67;3.00;;;;;24.36;57.65;101083.88;5002107;28;47044;-87
2021/09/10 10:18:41;;;;;;;;;4.33;4.33;;;;;24.48;58.00;101083.44;5019751;28;45360;-84
2021/09/10 10:21:08;;;;;;;;;4.00;4.00;;;;;24.58;57.99;101077.75;5019853;28;45297;-84
2021/09/10 10:23:43;;;;;;;;;5.00;4.00;;;;;24.74;57.69;101078.94;5020131;28;45218;-85
2021/09/10 10:26:28;;;;;;;;;4.67;4.33;;;;;24.95;57.37;101062.03;5019868;28;45490;-87
2021/09/10 10:29:03;;;;;;;;;5.00;4.00;;;;;25.26;56.73;101073.44;5019767;28;45405;-85
2021/09/10 10:32:07;;;;;;;;;5.00;4.00;;;;;25.46;56.10;101075.34;5019844;28;45418;-85
2021/09/10 10:34:53;;;;;;;;;5.67;5.00;;;;;25.61;55.63;101070.28;5020084;28;45413;-86
2021/09/10 10:37:40;;;;;;;;;5.00;4.00;;;;;26.09;55.46;101072.81;5019034;28;45573;-86
2021/09/10 10:40:25;;;;;;;;;3.33;3.00;;;;;27.21;54.99;101071.50;5019439;28;45434;-85
2021/09/10 10:42:51;;;;;;;;;4.67;3.33;;;;;28.49;52.98;101065.19;5019683;28;45434;-85
2021/09/10 10:45:37;;;;;;;;;4.00;4.00;;;;;29.74;51.39;101056.63;5019775;28;45297;-85
2021/09/10 10:48:02;;;;;;;;;4.33;3.33;;;;;30.94;48.75;101067.50;5018989;28;46244;-86
2021/09/10 10:50:33;;;;;;;;;3.00;3.00;;;;;31.78;47.00;101067.47;5018694;28;45696;-84
2021/09/10 10:52:58;;;;;;;;;4.67;4.33;;;;;32.29;45.31;101064.97;5019742;28;45173;-85
2021/09/10 10:55:35;;;;;;;;;3.00;3.00;;;;;31.66;45.02;101065.59;5019621;28;45312;-85
2021/09/10 10:58:22;;;;;;;;;4.00;4.00;;;;;31.10;44.71;101064.66;5019086;28;46015;-86
2021/09/10 11:00:49;;;;;;;;;3.00;3.00;;;;;31.01;44.48;101070.69;5018766;28;45531;-86
2021/09/10 11:03:14;;;;;;;;;5.00;3.67;;;;;31.50;43.67;101072.03;5019231;28;45293;-85
2021/09/10 11:05:41;;;;;;;;;3.33;3.00;;;;;32.38;42.81;101059.88;5001710;28;45237;-86
2021/09/10 11:08:06;;;;;;;;;1.33;1.33;;;;;33.38;41.71;101067.22;5001336;28;46336;-85
2021/09/10 11:10:32;;;;;;;;;3.00;3.00;;;;;33.16;41.05;101063.41;5018847;28;45333;-86
2021/09/10 11:12:58;;;;;;;;;5.00;3.33;;;;;32.56;41.05;101061.28;5019296;28;45360;-88
2021/09/10 11:15:28;;;;;;;;;3.33;3.33;;;;;32.07;41.04;101057.44;5018922;28;45288;-86
2021/09/10 11:18:08;;;;;;;;;3.67;3.00;;;;;31.37;40.84;101069.22;5019316;28;46113;-87
2021/09/10 11:20:41;;;;;;;;;3.00;3.00;;;;;30.66;41.49;101059.22;5019481;28;45321;-86
2021/09/10 11:23:14;;;;;;;;;4.00;3.00;;;;;30.03;42.08;101057.59;5019843;28;45186;-86